KCCY/CCY METAR and TAF weather

Enter ICAO airport designator
Station Type Date Time Source
KCCY METAR 2022/06/30 14:15 UTC NOAA

KCCY 301415Z AUTO 19012KT 10SM CLR 24/16 A2992 RMK AO2


Station Type Date Time Source
KCCY Decoded METAR 2022/06/30 14:15 UTC NOAA

Charles City, IA, United States (KCCY) 43-04N 092-37W
Jun 30, 2022 - 10:15 AM EDT / 2022.06.30 1415 UTC
Wind: from the S (190 degrees) at 14 MPH (12 KT):0
Visibility: 10 mile(s):0
Sky conditions: clear
Temperature: 75 F (24 C)
Dew Point: 60 F (16 C)
Relative Humidity: 60%
Pressure (altimeter): 29.92 in. Hg (1013 hPa)
ob: KCCY 301415Z AUTO 19012KT 10SM CLR 24/16 A2992 RMK AO2
cycle: 14

Station Type Date Time Source
KCCY TAF UTC NOAA

Error!

Example: see airport list